Time;durP1;ratioP1;P1;durP2;ratioP2;P2;SDS_P1;SDS_P2;PMS_P1;PMS_P2;Temp;Humidity;BMP_temperature;BMP_pressure;BME280_temperature;BME280_humidity;BME280_pressure;Samples;Min_cycle;Max_cycle;Signal;HPM_P1;HPM_P2
2023/05/06 00:00:58;;;;;;;10.32;6.32;;;13.10;99.90;;;;;;5094154;28;20039;-86
2023/05/06 00:03:24;;;;;;;11.15;5.90;;;13.10;99.90;;;;;;5078771;28;20058;-85
2023/05/06 00:05:49;;;;;;;11.23;5.93;;;13.00;99.90;;;;;;5098917;28;20123;-85
2023/05/06 00:08:16;;;;;;;10.73;6.00;;;13.00;99.90;;;;;;5096963;28;20443;-85
2023/05/06 00:10:41;;;;;;;10.50;8.65;;;12.90;99.90;;;;;;5109622;28;20185;-85
2023/05/06 00:13:08;;;;;;;12.82;6.40;;;13.00;99.90;;;;;;5093119;28;20119;-85
2023/05/06 00:15:34;;;;;;;9.75;6.35;;;12.90;99.90;;;;;;5093086;28;20039;-85
2023/05/06 00:18:00;;;;;;;12.77;6.82;;;12.80;99.90;;;;;;5093065;28;20038;-85
2023/05/06 00:20:27;;;;;;;11.80;6.68;;;12.80;99.90;;;;;;5093064;28;20039;-86
2023/05/06 00:22:53;;;;;;;11.20;6.47;;;12.80;99.90;;;;;;5092198;28;20032;-86
2023/05/06 00:25:19;;;;;;;10.10;6.43;;;12.70;99.90;;;;;;5075887;28;20513;-86
2023/05/06 00:27:45;;;;;;;10.77;6.10;;;12.70;99.90;;;;;;5093280;28;20035;-86
2023/05/06 00:30:11;;;;;;;11.45;7.03;;;12.70;99.90;;;;;;5076786;28;20031;-86
2023/05/06 00:32:37;;;;;;;11.18;6.47;;;12.60;99.90;;;;;;5077147;28;20486;-86
2023/05/06 00:35:03;;;;;;;9.60;5.95;;;12.60;99.90;;;;;;5093703;28;20043;-86
2023/05/06 00:37:29;;;;;;;13.73;6.85;;;12.60;99.90;;;;;;5060424;28;20075;-86
2023/05/06 00:39:55;;;;;;;12.98;6.80;;;12.50;99.90;;;;;;5076433;28;20081;-86
2023/05/06 00:42:22;;;;;;;14.02;6.25;;;12.50;99.90;;;;;;5094020;28;20035;-85
2023/05/06 00:44:48;;;;;;;9.77;6.15;;;12.40;99.90;;;;;;5060065;28;20039;-86
2023/05/06 00:47:14;;;;;;;;;;;12.40;99.90;;;;;;5059583;28;20108;-85
2023/05/06 00:49:40;;;;;;;11.45;6.68;;;12.40;99.90;;;;;;5110146;28;19919;-86
2023/05/06 00:52:07;;;;;;;9.73;5.82;;;12.40;99.90;;;;;;5093711;28;20031;-86
2023/05/06 00:54:33;;;;;;;10.50;6.82;;;12.30;99.90;;;;;;5110625;28;20059;-86
2023/05/06 00:56:58;;;;;;;13.02;6.28;;;12.30;99.90;;;;;;5093773;28;20414;-86
2023/05/06 00:59:24;;;;;;;11.13;6.28;;;12.30;99.90;;;;;;5059218;28;20043;-86
2023/05/06 01:01:51;;;;;;;13.98;6.65;;;12.40;99.90;;;;;;5076841;28;20058;-87
2023/05/06 01:04:17;;;;;;;;;;;12.30;99.90;;;;;;5077230;28;20180;-85
2023/05/06 01:07:00;;;;;;;14.30;6.72;;;12.40;99.90;;;;;;5093122;28;20333;-85
2023/05/06 01:09:45;;;;;;;10.25;6.65;;;12.40;99.90;;;;;;5093350;28;20032;-85
2023/05/06 01:12:28;;;;;;;10.70;6.80;;;12.40;99.90;;;;;;5093303;28;20031;-86
2023/05/06 01:15:08;;;;;;;12.60;7.05;;;12.40;99.90;;;;;;5110176;28;20042;-86
2023/05/06 01:17:38;;;;;;;13.60;7.05;;;12.40;99.90;;;;;;5092764;28;20039;-86
2023/05/06 01:20:06;;;;;;;13.05;6.60;;;12.50;99.90;;;;;;5093278;28;20043;-86
2023/05/06 01:22:35;;;;;;;10.75;6.75;;;12.50;99.90;;;;;;5110597;28;20038;-85
2023/05/06 01:25:01;;;;;;;13.45;6.43;;;12.50;99.90;;;;;;5093220;28;20036;-86
2023/05/06 01:27:27;;;;;;;11.70;6.32;;;12.50;99.90;;;;;;5076303;28;20038;-85
2023/05/06 01:29:53;;;;;;;12.43;6.65;;;12.50;99.90;;;;;;5093058;28;20066;-86
2023/05/06 01:32:50;;;;;;;12.05;7.28;;;12.40;99.90;;;;;;5075852;28;20035;-86
2023/05/06 01:35:30;;;;;;;13.88;7.03;;;12.50;99.90;;;;;;5084109;28;20048;-86
2023/05/06 01:38:35;;;;;;;11.98;6.88;;;12.50;99.90;;;;;;5125109;28;20046;-87
2023/05/06 01:41:01;;;;;;;12.10;7.15;;;12.50;99.90;;;;;;5098834;28;20044;-87
2023/05/06 01:43:28;;;;;;;;;;;12.50;99.90;;;;;;5093584;28;20036;-85
2023/05/06 01:45:55;;;;;;;9.93;6.35;;;12.40;99.90;;;;;;5093101;28;19919;-87
2023/05/06 01:48:25;;;;;;;12.13;6.32;;;12.40;99.90;;;;;;5076429;28;20027;-86
2023/05/06 01:50:51;;;;;;;10.23;6.70;;;12.40;99.90;;;;;;5093179;28;20074;-86
2023/05/06 01:53:16;;;;;;;12.77;7.30;;;12.40;99.90;;;;;;5110018;28;20071;-87
2023/05/06 01:55:42;;;;;;;9.82;6.65;;;12.30;99.90;;;;;;5092294;28;20042;-84
2023/05/06 01:58:08;;;;;;;12.73;7.18;;;12.30;99.90;;;;;;5076091;28;20042;-85
2023/05/06 02:00:33;;;;;;;10.13;7.43;;;12.30;99.90;;;;;;5109722;28;20390;-86
2023/05/06 02:02:59;;;;;;;9.80;6.65;;;12.20;99.90;;;;;;5092440;28;20089;-85
2023/05/06 02:05:25;;;;;;;12.38;6.78;;;12.10;99.90;;;;;;5092311;28;20043;-86
2023/05/06 02:07:51;;;;;;;11.93;7.47;;;12.10;99.90;;;;;;5058661;28;20126;-86
2023/05/06 02:10:17;;;;;;;13.60;6.50;;;12.00;99.90;;;;;;5076077;28;20141;-85
2023/05/06 02:12:43;;;;;;;9.98;7.00;;;12.00;99.90;;;;;;5112322;28;20136;-87
2023/05/06 02:15:09;;;;;;;13.07;7.47;;;12.00;99.90;;;;;;5062513;28;20503;-87
2023/05/06 02:17:36;;;;;;;13.40;7.70;;;12.00;99.90;;;;;;5096356;28;20116;-86
2023/05/06 02:20:02;;;;;;;13.10;7.72;;;11.90;99.90;;;;;;5078884;28;20537;-87
2023/05/06 02:22:28;;;;;;;10.70;7.30;;;11.90;99.90;;;;;;5079309;28;20044;-87
2023/05/06 02:24:54;;;;;;;15.43;7.72;;;11.90;99.90;;;;;;5078658;28;20530;-87
2023/05/06 02:27:19;;;;;;;12.48;7.60;;;11.90;99.90;;;;;;5096020;28;20047;-87
2023/05/06 02:29:45;;;;;;;11.80;7.60;;;11.80;99.90;;;;;;5061115;28;20031;-86
2023/05/06 02:32:11;;;;;;;14.23;7.80;;;11.80;99.90;;;;;;5112277;28;20536;-87
2023/05/06 02:34:37;;;;;;;11.50;7.10;;;11.80;99.90;;;;;;5062156;28;20046;-86
2023/05/06 02:37:02;;;;;;;10.40;7.38;;;11.70;99.90;;;;;;5078697;28;20418;-86
2023/05/06 02:39:28;;;;;;;13.02;7.65;;;11.70;99.90;;;;;;5078814;28;20039;-86
2023/05/06 02:41:54;;;;;;;12.90;7.15;;;11.70;99.90;;;;;;5078326;28;20494;-85
2023/05/06 02:44:19;;;;;;;12.05;7.35;;;11.60;99.90;;;;;;5061783;28;20059;-87
2023/05/06 02:46:45;;;;;;;14.95;8.38;;;11.60;99.90;;;;;;5059542;28;20032;-86
2023/05/06 02:49:11;;;;;;;14.95;8.00;;;11.50;99.90;;;;;;5095691;28;20084;-86
2023/05/06 02:51:36;;;;;;;12.30;7.80;;;11.50;99.90;;;;;;5095828;28;20114;-86
2023/05/06 02:54:02;;;;;;;14.15;7.55;;;11.50;99.90;;;;;;5061426;28;20097;-86
2023/05/06 02:56:28;;;;;;;12.35;7.15;;;11.50;99.90;;;;;;5078546;28;20122;-86
2023/05/06 02:58:54;;;;;;;14.25;7.90;;;11.50;99.90;;;;;;5077928;28;20039;-86
2023/05/06 03:01:20;;;;;;;11.63;7.55;;;11.50;99.90;;;;;;5078659;28;20383;-86
2023/05/06 03:03:46;;;;;;;12.07;7.78;;;11.50;99.90;;;;;;5078145;28;20052;-86
2023/05/06 03:06:12;;;;;;;12.07;8.07;;;11.50;99.90;;;;;;5078429;28;20043;-87
2023/05/06 03:08:37;;;;;;;12.15;8.13;;;11.60;99.90;;;;;;5095348;28;20428;-86
2023/05/06 03:11:03;;;;;;;13.57;7.55;;;11.50;99.90;;;;;;5078141;28;20038;-87
2023/05/06 03:13:29;;;;;;;13.90;7.35;;;11.50;99.90;;;;;;5079016;28;20487;-86
2023/05/06 03:15:55;;;;;;;10.80;7.07;;;11.50;99.90;;;;;;5095064;28;20043;-86
2023/05/06 03:18:21;;;;;;;10.20;7.05;;;11.50;99.90;;;;;;5078165;28;20285;-87
2023/05/06 03:20:50;;;;;;;11.70;7.00;;;11.50;99.90;;;;;;5112418;28;20054;-87
2023/05/06 03:23:16;;;;;;;14.55;7.32;;;11.50;99.90;;;;;;5095042;28;20114;-87
2023/05/06 03:25:41;;;;;;;16.45;10.55;;;11.50;99.90;;;;;;5094780;28;20162;-87
2023/05/06 03:28:07;;;;;;;14.95;7.57;;;11.50;99.90;;;;;;5095232;28;20093;-86
2023/05/06 03:30:33;;;;;;;13.05;7.88;;;11.40;99.90;;;;;;5112123;28;20110;-87
2023/05/06 03:33:01;;;;;;;13.43;7.70;;;11.40;99.90;;;;;;5078193;28;20410;-87
2023/05/06 03:35:27;;;;;;;12.55;7.05;;;11.30;99.90;;;;;;5078280;28;20058;-87
2023/05/06 03:37:53;;;;;;;12.10;7.20;;;11.30;99.90;;;;;;5075330;28;20495;-85
2023/05/06 03:40:19;;;;;;;12.73;7.75;;;11.30;99.90;;;;;;5111700;28;20064;-86
2023/05/06 03:42:45;;;;;;;12.10;8.05;;;11.30;99.90;;;;;;5078033;28;20123;-86
2023/05/06 03:45:11;;;;;;;11.50;7.07;;;11.20;99.90;;;;;;5077290;28;20043;-86
2023/05/06 03:47:37;;;;;;;12.23;8.07;;;11.20;99.90;;;;;;5077435;28;20031;-86
2023/05/06 03:50:03;;;;;;;12.30;7.50;;;11.10;99.90;;;;;;5094078;28;20042;-87
2023/05/06 03:52:29;;;;;;;13.13;7.78;;;11.00;99.90;;;;;;5111324;28;20043;-86
2023/05/06 03:54:55;;;;;;;12.75;8.40;;;10.90;99.90;;;;;;5110771;28;20511;-86
2023/05/06 03:57:20;;;;;;;11.50;7.55;;;10.90;99.90;;;;;;5076613;28;20035;-86
2023/05/06 03:59:46;;;;;;;16.77;8.35;;;10.90;99.90;;;;;;5111194;28;20036;-86
2023/05/06 04:02:13;;;;;;;12.27;7.47;;;10.90;99.90;;;;;;5077062;28;20120;-86
2023/05/06 04:04:38;;;;;;;16.40;8.07;;;10.90;99.90;;;;;;5110776;28;20040;-85
2023/05/06 04:07:04;;;;;;;13.93;7.75;;;10.90;99.90;;;;;;5076839;28;20032;-86
2023/05/06 04:09:31;;;;;;;15.43;8.65;;;10.90;99.90;;;;;;5077220;28;20028;-86
2023/05/06 04:11:57;;;;;;;14.48;7.60;;;10.90;99.90;;;;;;5077069;28;20103;-86
2023/05/06 04:14:23;;;;;;;13.13;7.57;;;10.90;99.90;;;;;;5078056;28;20114;-86
2023/05/06 04:16:49;;;;;;;13.95;7.85;;;10.90;99.90;;;;;;5077354;28;20153;-86
2023/05/06 04:19:16;;;;;;;13.35;7.50;;;11.00;99.90;;;;;;5094567;28;20084;-86
2023/05/06 04:21:42;;;;;;;16.10;8.25;;;11.50;99.90;;;;;;5076263;28;20067;-87
2023/05/06 04:24:08;;;;;;;14.93;8.45;;;11.00;99.90;;;;;;5092708;28;20187;-87
2023/05/06 04:26:34;;;;;;;16.08;8.55;;;11.10;99.90;;;;;;5076515;28;20584;-87
2023/05/06 04:28:59;;;;;;;12.90;8.50;;;11.10;99.90;;;;;;5090589;28;20047;-86
2023/05/06 04:31:28;;;;;;;14.20;8.48;;;11.10;99.90;;;;;;5060143;28;20039;-86
2023/05/06 04:33:54;;;;;;;15.60;8.57;;;11.10;99.90;;;;;;5093646;28;20040;-86
2023/05/06 04:36:20;;;;;;;14.85;8.73;;;11.20;99.90;;;;;;5076589;28;20424;-86
2023/05/06 04:38:46;;;;;;;13.52;8.30;;;11.20;99.90;;;;;;5076686;28;20038;-86
2023/05/06 04:41:12;;;;;;;14.43;8.00;;;11.30;99.90;;;;;;5076904;28;20434;-86
2023/05/06 04:43:38;;;;;;;;;;;11.30;99.90;;;;;;5094250;28;20040;-85
2023/05/06 04:46:04;;;;;;;13.82;8.30;;;11.40;99.90;;;;;;5093440;28;19922;-86
2023/05/06 04:48:30;;;;;;;13.90;8.88;;;11.40;99.90;;;;;;5093244;28;20063;-85
2023/05/06 04:50:55;;;;;;;14.23;8.65;;;11.50;99.90;;;;;;5076621;28;21753;-85
2023/05/06 04:53:21;;;;;;;16.30;8.23;;;11.50;99.90;;;;;;5110096;28;20040;-86
2023/05/06 04:55:47;;;;;;;16.67;8.93;;;11.50;99.90;;;;;;5059717;28;20032;-85
2023/05/06 04:58:13;;;;;;;14.90;8.75;;;11.60;99.90;;;;;;5092801;28;20482;-86
2023/05/06 05:00:39;;;;;;;13.25;8.25;;;11.60;99.90;;;;;;5076570;28;20040;-85
2023/05/06 05:03:04;;;;;;;15.63;8.43;;;11.60;99.90;;;;;;5076309;28;20087;-86
2023/05/06 05:05:33;;;;;;;14.93;8.80;;;11.70;99.90;;;;;;5110345;28;20118;-86
2023/05/06 05:07:58;;;;;;;15.30;8.90;;;11.70;99.90;;;;;;5093830;28;20375;-86
2023/05/06 05:10:24;;;;;;;13.95;8.40;;;11.70;99.90;;;;;;5074472;28;20043;-86
2023/05/06 05:12:50;;;;;;;15.93;8.80;;;11.80;99.90;;;;;;5058377;28;20364;-86
2023/05/06 05:15:15;;;;;;;14.15;8.05;;;11.90;99.90;;;;;;5093393;28;20042;-87
2023/05/06 05:17:41;;;;;;;11.95;7.50;;;11.90;99.90;;;;;;5093226;28;20055;-86
2023/05/06 05:20:07;;;;;;;14.70;8.27;;;12.00;99.90;;;;;;5075940;28;20047;-87
2023/05/06 05:22:33;;;;;;;12.70;8.65;;;12.00;99.90;;;;;;5093006;28;20046;-87
2023/05/06 05:24:59;;;;;;;14.45;8.30;;;12.00;99.90;;;;;;5075775;28;20546;-86
2023/05/06 05:27:25;;;;;;;14.30;8.70;;;12.10;99.90;;;;;;5059504;28;20035;-87
2023/05/06 05:29:50;;;;;;;12.38;7.93;;;12.10;99.90;;;;;;5075854;28;20071;-87
2023/05/06 05:32:16;;;;;;;15.73;8.80;;;12.10;99.90;;;;;;5059497;28;20059;-86
2023/05/06 05:34:42;;;;;;;16.60;8.98;;;12.10;99.90;;;;;;5073895;28;20039;-87
2023/05/06 05:37:07;;;;;;;14.52;8.77;;;12.10;99.90;;;;;;5075948;28;20042;-86
2023/05/06 05:39:33;;;;;;;16.27;8.80;;;12.10;99.90;;;;;;5076093;28;20115;-87
2023/05/06 05:41:59;;;;;;;18.52;9.52;;;12.10;99.90;;;;;;5075898;28;20130;-87
2023/05/06 05:44:25;;;;;;;16.65;9.43;;;12.10;99.90;;;;;;5075675;28;20027;-86
2023/05/06 05:46:50;;;;;;;17.13;9.07;;;12.10;99.90;;;;;;5078378;28;20114;-85
2023/05/06 05:49:16;;;;;;;17.05;9.32;;;12.10;99.90;;;;;;5064433;28;20031;-82
2023/05/06 05:51:42;;;;;;;17.38;9.93;;;12.10;99.90;;;;;;5079631;28;20504;-84
2023/05/06 05:54:07;;;;;;;19.17;10.50;;;12.20;99.90;;;;;;5080047;28;20042;-84
2023/05/06 05:56:33;;;;;;;17.43;9.97;;;12.20;99.90;;;;;;5113683;28;20039;-84
2023/05/06 05:58:59;;;;;;;17.60;10.20;;;12.20;99.90;;;;;;5080639;28;20380;-84
2023/05/06 06:01:25;;;;;;;;;;;12.30;99.90;;;;;;5096838;28;20106;-84
2023/05/06 06:03:52;;;;;;;17.20;9.52;;;12.30;99.90;;;;;;5096028;28;19927;-87
2023/05/06 06:06:18;;;;;;;20.13;10.35;;;12.30;99.90;;;;;;5095448;28;20067;-86
2023/05/06 06:08:44;;;;;;;20.17;10.43;;;12.30;99.90;;;;;;5112185;28;20036;-87
2023/05/06 06:11:10;;;;;;;17.90;10.60;;;12.30;99.90;;;;;;5095616;28;20053;-85
2023/05/06 06:13:36;;;;;;;;;;;12.30;99.90;;;;;;5112894;28;20039;-86
2023/05/06 06:16:03;;;;;;;19.23;10.95;;;12.30;99.90;;;;;;5096118;28;19916;-85
2023/05/06 06:18:28;;;;;;;23.98;11.00;;;12.30;99.90;;;;;;5096056;28;20035;-85
2023/05/06 06:20:54;;;;;;;19.73;10.50;;;12.30;99.90;;;;;;5078941;28;20403;-85
2023/05/06 06:23:20;;;;;;;19.13;10.73;;;12.30;99.90;;;;;;5079113;28;20490;-86
2023/05/06 06:25:46;;;;;;;20.63;11.43;;;12.30;99.90;;;;;;5113027;28;20130;-86
2023/05/06 06:28:12;;;;;;;21.33;10.82;;;12.30;99.90;;;;;;5095688;28;20475;-85
2023/05/06 06:30:37;;;;;;;20.70;11.68;;;12.30;99.90;;;;;;5060403;28;20040;-85
2023/05/06 06:33:03;;;;;;;22.70;12.02;;;12.30;99.90;;;;;;5095820;28;20070;-85
2023/05/06 06:35:29;;;;;;;21.40;11.20;;;12.30;99.90;;;;;;5095889;28;20031;-86
2023/05/06 06:37:54;;;;;;;20.58;11.00;;;12.30;99.90;;;;;;5096665;28;20080;-85
2023/05/06 06:40:21;;;;;;;21.65;12.23;;;12.30;99.90;;;;;;5094670;28;20040;-86
2023/05/06 06:42:47;;;;;;;22.80;11.90;;;12.10;99.90;;;;;;5078079;28;20035;-86
2023/05/06 06:45:14;;;;;;;20.15;10.95;;;12.30;99.90;;;;;;5078909;28;20118;-86
2023/05/06 06:47:40;;;;;;;21.40;11.15;;;12.30;99.90;;;;;;5096154;28;20031;-86
2023/05/06 06:50:07;;;;;;;21.67;11.15;;;12.30;99.90;;;;;;5096108;28;20031;-85
2023/05/06 06:52:36;;;;;;;19.77;13.50;;;12.30;99.90;;;;;;5078823;28;20122;-86
2023/05/06 06:55:02;;;;;;;19.45;9.80;;;12.30;99.90;;;;;;5079461;28;20046;-86
2023/05/06 06:57:28;;;;;;;19.20;10.10;;;12.30;99.90;;;;;;5127053;27;20071;-87
2023/05/06 06:59:54;;;;;;;21.13;9.77;;;12.40;99.90;;;;;;5060192;28;20150;-88
2023/05/06 07:02:21;;;;;;;19.38;10.15;;;12.40;99.90;;;;;;5078250;28;20036;-85
2023/05/06 07:04:47;;;;;;;20.33;10.40;;;12.40;99.90;;;;;;5111661;28;20050;-86
2023/05/06 07:07:12;;;;;;;20.50;9.88;;;12.40;99.90;;;;;;5112391;28;20036;-85
2023/05/06 07:09:38;;;;;;;17.75;9.50;;;12.50;99.90;;;;;;5078474;28;20032;-85
2023/05/06 07:12:06;;;;;;;20.30;10.63;;;12.50;99.90;;;;;;5113354;28;20043;-86
2023/05/06 07:14:32;;;;;;;17.98;10.10;;;12.60;99.90;;;;;;5111566;28;20078;-86
2023/05/06 07:16:59;;;;;;;18.55;10.20;;;12.70;99.90;;;;;;5078301;28;20044;-86
2023/05/06 07:19:26;;;;;;;16.45;9.70;;;12.70;99.90;;;;;;5111916;28;20563;-86
2023/05/06 07:21:51;;;;;;;21.48;10.32;;;12.80;99.90;;;;;;5094808;28;20036;-86
2023/05/06 07:24:17;;;;;;;21.02;10.85;;;12.80;99.90;;;;;;5078270;28;20395;-86
2023/05/06 07:26:43;;;;;;;17.88;10.50;;;12.90;99.90;;;;;;5078334;28;20430;-85
2023/05/06 07:29:09;;;;;;;21.45;10.52;;;12.90;99.90;;;;;;5078231;28;20085;-86
2023/05/06 07:31:35;;;;;;;17.98;10.30;;;12.90;99.90;;;;;;5077991;28;20399;-86
2023/05/06 07:34:01;;;;;;;18.95;13.93;;;12.90;99.90;;;;;;5094421;28;20404;-85
2023/05/06 07:36:27;;;;;;;19.63;10.98;;;12.90;99.90;;;;;;5112518;28;20039;-87
2023/05/06 07:38:53;;;;;;;18.40;10.05;;;13.00;99.90;;;;;;5111872;28;20064;-85
2023/05/06 07:41:19;;;;;;;17.20;10.07;;;13.00;99.90;;;;;;5077696;28;20043;-87
2023/05/06 07:43:45;;;;;;;;;;;13.00;99.90;;;;;;5079180;28;20455;-86
2023/05/06 07:46:11;;;;;;;17.23;9.77;;;13.10;99.90;;;;;;5095527;28;19922;-86
2023/05/06 07:48:36;;;;;;;19.60;10.73;;;13.20;99.90;;;;;;5077915;28;20028;-86
2023/05/06 07:51:02;;;;;;;21.25;11.45;;;13.30;99.90;;;;;;5061807;28;20038;-86
2023/05/06 07:53:28;;;;;;;19.63;11.50;;;13.50;99.90;;;;;;5094926;28;20032;-86
2023/05/06 07:56:00;;;;;;;17.42;10.55;;;13.70;99.90;;;;;;5061880;28;20039;-86
2023/05/06 07:58:30;;;;;;;17.75;10.35;;;13.70;99.90;;;;;;5079199;28;20035;-86
2023/05/06 08:00:56;;;;;;;26.15;11.68;;;14.10;99.90;;;;;;5111972;28;20040;-86
2023/05/06 08:03:22;;;;;;;17.77;10.27;;;14.40;99.90;;;;;;5078138;28;20088;-86
2023/05/06 08:05:51;;;;;;;16.17;9.63;;;14.90;99.90;;;;;;5094032;28;20051;-87
2023/05/06 08:08:18;;;;;;;15.45;9.93;;;15.30;99.90;;;;;;5075356;28;20116;-86
2023/05/06 08:10:44;;;;;;;14.55;9.10;;;15.70;99.90;;;;;;5078522;28;20063;-89
2023/05/06 08:13:10;;;;;;;11.88;7.70;;;16.20;99.90;;;;;;5096069;28;20491;-85
2023/05/06 08:15:37;;;;;;;11.70;7.50;;;16.70;99.90;;;;;;5077492;28;20050;-86
2023/05/06 08:18:03;;;;;;;11.43;7.15;;;17.00;99.90;;;;;;5061490;28;20044;-85
2023/05/06 08:20:29;;;;;;;11.35;8.10;;;17.30;99.90;;;;;;5094624;28;20035;-85
2023/05/06 08:22:55;;;;;;;10.52;7.07;;;17.50;99.90;;;;;;5077974;28;20420;-84
